Time;durP1;ratioP1;P1;durP2;ratioP2;P2;SDS_P1;SDS_P2;PMS_P1;PMS_P2;Temp;Humidity;BMP_temperature;BMP_pressure;BME280_temperature;BME280_humidity;BME280_pressure;Samples;Min_cycle;Max_cycle;Signal;HPM_P1;HPM_P2
2022/11/01 00:02:24;;;;;;;25.98;14.25;;;;;;;;;;5028580;28;20042;-83
2022/11/01 00:04:50;;;;;;;25.42;14.82;;;;;;;;;;5044135;28;20048;-83
2022/11/01 00:07:16;;;;;;;25.08;14.00;;;;;;;;;;5023083;28;20471;-83
2022/11/01 00:09:42;;;;;;;22.77;13.85;;;;;;;;;;5031853;28;20069;-83
2022/11/01 00:12:08;;;;;;;23.67;14.18;;;;;;;;;;5033588;28;20049;-81
2022/11/01 00:14:34;;;;;;;21.70;13.05;;;;;;;;;;5035742;28;20133;-83
2022/11/01 00:17:00;;;;;;;22.40;13.52;;;;;;;;;;5033334;28;20041;-83
2022/11/01 00:19:26;;;;;;;19.52;13.07;;;;;;;;;;5032830;28;20049;-83
2022/11/01 00:21:52;;;;;;;22.60;13.13;;;;;;;;;;5036749;28;20052;-83
2022/11/01 00:24:18;;;;;;;23.13;12.25;;;;;;;;;;5015251;28;20041;-83
2022/11/01 00:26:44;;;;;;;17.55;12.13;;;;;;;;;;5035653;28;20045;-83
2022/11/01 00:29:11;;;;;;;18.95;11.60;;;;;;;;;;5034292;28;20111;-83
2022/11/01 00:31:37;;;;;;;17.02;11.73;;;;;;;;;;5018121;28;20552;-83
2022/11/01 00:34:05;;;;;;;19.10;11.32;;;;;;;;;;5036647;28;20057;-83
2022/11/01 00:36:34;;;;;;;17.95;11.57;;;;;;;;;;5019889;28;20052;-81
2022/11/01 00:39:00;;;;;;;20.23;11.70;;;;;;;;;;5017839;28;20042;-83
2022/11/01 00:41:27;;;;;;;18.90;11.45;;;;;;;;;;5017333;28;20050;-83
2022/11/01 00:43:53;;;;;;;19.70;10.98;;;;;;;;;;5028346;28;20489;-83
2022/11/01 00:46:19;;;;;;;18.20;10.43;;;;;;;;;;5019904;28;20049;-83
2022/11/01 00:48:45;;;;;;;18.02;10.43;;;;;;;;;;5035176;28;20049;-83
2022/11/01 00:51:11;;;;;;;15.35;11.15;;;;;;;;;;5036488;28;20042;-83
2022/11/01 00:53:37;;;;;;;20.58;10.52;;;;;;;;;;5033962;28;20053;-84
2022/11/01 00:56:04;;;;;;;17.30;10.13;;;;;;;;;;5023287;28;20141;-83
2022/11/01 00:58:30;;;;;;;17.13;9.63;;;;;;;;;;5032152;28;20041;-83
2022/11/01 01:00:56;;;;;;;18.40;10.60;;;;;;;;;;5034660;28;20064;-81
2022/11/01 01:03:22;;;;;;;17.00;10.35;;;;;;;;;;5031027;28;20045;-83
2022/11/01 01:05:49;;;;;;;21.08;10.20;;;;;;;;;;5017734;28;20041;-80
2022/11/01 01:08:15;;;;;;;15.63;9.90;;;;;;;;;;5035373;28;20049;-83
2022/11/01 01:10:41;;;;;;;15.70;9.50;;;;;;;;;;5035415;28;20054;-84
2022/11/01 01:13:09;;;;;;;16.17;9.82;;;;;;;;;;5035388;28;20115;-83
2022/11/01 01:15:37;;;;;;;15.73;9.52;;;;;;;;;;5035187;28;20041;-84
2022/11/01 01:18:03;;;;;;;18.77;9.68;;;;;;;;;;5023806;28;20083;-84
2022/11/01 01:20:29;;;;;;;17.50;9.38;;;;;;;;;;5013880;28;20104;-83
2022/11/01 01:22:55;;;;;;;13.50;9.20;;;;;;;;;;5034197;28;20041;-83
2022/11/01 01:25:22;;;;;;;16.35;9.35;;;;;;;;;;5033755;28;20073;-83
2022/11/01 01:27:48;;;;;;;14.30;9.50;;;;;;;;;;5032715;28;20042;-83
2022/11/01 01:30:14;;;;;;;15.75;9.73;;;;;;;;;;5021204;28;20046;-84
2022/11/01 01:32:40;;;;;;;15.07;8.68;;;;;;;;;;5023692;28;20038;-84
2022/11/01 01:35:07;;;;;;;18.98;9.73;;;;;;;;;;5035062;28;20055;-83
2022/11/01 01:37:33;;;;;;;14.60;8.88;;;;;;;;;;5035122;28;20064;-83
2022/11/01 01:39:59;;;;;;;20.45;9.52;;;;;;;;;;5033308;28;20473;-83
2022/11/01 01:42:28;;;;;;;13.60;9.13;;;;;;;;;;5014452;28;20064;-83
2022/11/01 01:44:54;;;;;;;16.75;9.35;;;;;;;;;;5020879;28;20037;-83
2022/11/01 01:47:23;;;;;;;18.13;9.52;;;;;;;;;;5033936;28;20366;-82
2022/11/01 01:49:51;;;;;;;17.73;9.48;;;;;;;;;;5030804;28;20057;-83
2022/11/01 01:52:18;;;;;;;13.38;9.07;;;;;;;;;;5046717;28;20046;-83
2022/11/01 01:54:45;;;;;;;14.32;9.18;;;;;;;;;;5061949;28;20391;-83
2022/11/01 01:57:11;;;;;;;15.60;8.88;;;;;;;;;;5034402;28;20048;-83
2022/11/01 01:59:37;;;;;;;18.27;9.90;;;;;;;;;;5032868;28;20132;-83
2022/11/01 02:02:03;;;;;;;17.25;9.07;;;;;;;;;;5028367;28;20055;-83
2022/11/01 02:04:35;;;;;;;16.20;9.98;;;;;;;;;;5033464;28;20049;-83
2022/11/01 02:07:01;;;;;;;15.00;9.63;;;;;;;;;;5031035;28;20405;-83
2022/11/01 02:09:27;;;;;;;13.48;8.95;;;;;;;;;;5033985;28;20079;-83
2022/11/01 02:11:53;;;;;;;14.68;8.50;;;;;;;;;;5033865;28;20072;-83
2022/11/01 02:14:21;;;;;;;20.08;9.00;;;;;;;;;;5024908;28;20499;-83
2022/11/01 02:16:51;;;;;;;15.10;8.68;;;;;;;;;;5033599;28;20045;-83
2022/11/01 02:19:37;;;;;;;15.18;9.13;;;;;;;;;;5028065;28;20474;-83
2022/11/01 02:22:23;;;;;;;13.02;8.20;;;;;;;;;;5033955;28;20132;-83
2022/11/01 02:24:55;;;;;;;18.27;8.23;;;;;;;;;;5033694;28;20476;-83
2022/11/01 02:27:30;;;;;;;20.42;9.18;;;;;;;;;;5034272;28;20041;-84
2022/11/01 02:30:15;;;;;;;14.40;8.75;;;;;;;;;;5034360;28;20045;-83
2022/11/01 02:32:50;;;;;;;13.82;8.65;;;;;;;;;;5033692;28;20049;-83
2022/11/01 02:35:16;;;;;;;15.52;8.20;;;;;;;;;;5029133;28;20045;-83
2022/11/01 02:37:52;;;;;;;11.07;7.32;;;;;;;;;;5014245;28;20068;-83
2022/11/01 02:40:26;;;;;;;14.55;7.90;;;;;;;;;;5060480;28;20049;-83
2022/11/01 02:42:54;;;;;;;13.77;7.43;;;;;;;;;;5034078;28;20128;-83
2022/11/01 02:45:37;;;;;;;10.70;7.10;;;;;;;;;;5032919;28;20048;-83
2022/11/01 02:48:04;;;;;;;16.65;8.02;;;;;;;;;;5034940;28;20059;-83
2022/11/01 02:50:34;;;;;;;13.77;8.13;;;;;;;;;;5034195;28;20041;-83
2022/11/01 02:53:00;;;;;;;13.43;7.43;;;;;;;;;;5034095;28;20046;-84
2022/11/01 02:55:28;;;;;;;15.43;7.53;;;;;;;;;;5017597;28;20137;-83
2022/11/01 02:57:55;;;;;;;12.82;8.02;;;;;;;;;;5033548;28;20061;-83
2022/11/01 03:00:21;;;;;;;16.05;8.98;;;;;;;;;;5019988;28;20038;-83
2022/11/01 03:02:49;;;;;;;13.13;7.88;;;;;;;;;;5015762;28;20049;-83
2022/11/01 03:05:30;;;;;;;15.05;7.90;;;;;;;;;;5033897;28;20052;-83
2022/11/01 03:07:59;;;;;;;14.43;7.95;;;;;;;;;;5032669;28;20053;-83
2022/11/01 03:10:33;;;;;;;14.70;7.97;;;;;;;;;;5032656;28;20077;-82
2022/11/01 03:13:05;;;;;;;10.55;7.35;;;;;;;;;;5018745;28;20508;-83
2022/11/01 03:15:38;;;;;;;12.02;7.53;;;;;;;;;;5020278;28;20098;-83
2022/11/01 03:18:08;;;;;;;12.00;7.60;;;;;;;;;;5044366;28;20048;-83
2022/11/01 03:20:47;;;;;;;17.75;8.40;;;;;;;;;;5029332;28;20069;-83
2022/11/01 03:23:18;;;;;;;13.85;7.63;;;;;;;;;;5031776;28;20041;-82
2022/11/01 03:25:50;;;;;;;13.45;7.10;;;;;;;;;;5031905;28;20049;-83
2022/11/01 03:28:24;;;;;;;13.30;7.60;;;;;;;;;;5020602;28;20050;-83
2022/11/01 03:30:54;;;;;;;15.77;8.50;;;;;;;;;;5062537;28;20477;-83
2022/11/01 03:33:21;;;;;;;15.18;7.60;;;;;;;;;;5032038;28;20504;-82
2022/11/01 03:35:49;;;;;;;10.63;6.97;;;;;;;;;;5014153;28;20050;-82
2022/11/01 03:38:17;;;;;;;14.45;7.72;;;;;;;;;;5056922;28;20485;-83
2022/11/01 03:40:48;;;;;;;16.80;8.25;;;;;;;;;;5032107;28;20496;-82
2022/11/01 03:43:15;;;;;;;14.50;8.80;;;;;;;;;;5019840;28;20049;-82
2022/11/01 03:45:42;;;;;;;11.82;7.50;;;;;;;;;;5033609;28;20038;-83
2022/11/01 03:48:08;;;;;;;11.57;7.22;;;;;;;;;;5032216;28;20068;-83
2022/11/01 03:50:34;;;;;;;12.48;7.53;;;;;;;;;;5023399;28;20037;-83
2022/11/01 03:53:00;;;;;;;12.43;7.85;;;;;;;;;;5033283;28;20492;-83
2022/11/01 03:55:26;;;;;;;14.32;7.97;;;;;;;;;;5033156;28;20038;-83
2022/11/01 03:57:53;;;;;;;11.45;7.47;;;;;;;;;;5035668;28;20050;-83
2022/11/01 04:00:21;;;;;;;14.60;7.88;;;;;;;;;;5026967;28;20438;-83
2022/11/01 04:02:47;;;;;;;10.15;7.40;;;;;;;;;;5036743;28;20088;-82
2022/11/01 04:05:13;;;;;;;12.35;7.28;;;;;;;;;;5036736;28;20490;-83
2022/11/01 04:07:40;;;;;;;10.90;7.35;;;;;;;;;;5032423;28;20054;-83
2022/11/01 04:10:06;;;;;;;13.15;7.25;;;;;;;;;;5024314;28;20049;-83
2022/11/01 04:12:32;;;;;;;13.75;7.32;;;;;;;;;;5035963;28;20049;-83
2022/11/01 04:20:34;;;;;;;12.45;7.25;;;;;;;;;;5028952;28;20050;-83
2022/11/01 04:23:01;;;;;;;10.32;7.25;;;;;;;;;;5028844;28;20132;-83
2022/11/01 04:25:27;;;;;;;11.55;7.38;;;;;;;;;;5034832;28;20562;-83
2022/11/01 04:27:55;;;;;;;9.90;6.72;;;;;;;;;;5036597;28;20049;-83
2022/11/01 04:30:22;;;;;;;12.73;6.85;;;;;;;;;;5026338;28;20056;-83
2022/11/01 04:32:48;;;;;;;12.77;6.93;;;;;;;;;;5016418;28;20420;-83
2022/11/01 04:35:14;;;;;;;10.77;6.32;;;;;;;;;;5016704;28;20485;-83
2022/11/01 04:37:40;;;;;;;11.95;7.28;;;;;;;;;;5018495;28;20050;-83
2022/11/01 04:40:06;;;;;;;8.98;6.10;;;;;;;;;;5036296;28;20041;-83
2022/11/01 04:42:36;;;;;;;13.30;6.65;;;;;;;;;;5036221;28;20111;-83
2022/11/01 04:45:03;;;;;;;13.98;7.25;;;;;;;;;;5036347;28;20047;-83
2022/11/01 04:47:29;;;;;;;10.38;6.40;;;;;;;;;;5036330;28;20103;-83
2022/11/01 04:49:55;;;;;;;13.88;6.95;;;;;;;;;;5034554;28;20041;-83
2022/11/01 04:52:21;;;;;;;11.07;6.43;;;;;;;;;;5035048;28;20064;-83
2022/11/01 04:54:47;;;;;;;10.57;6.50;;;;;;;;;;5021768;28;20046;-83
2022/11/01 04:57:23;;;;;;;12.60;6.25;;;;;;;;;;5023018;28;20400;-83
2022/11/01 04:59:52;;;;;;;11.13;6.57;;;;;;;;;;5021692;28;20485;-83
2022/11/01 05:02:22;;;;;;;9.57;5.75;;;;;;;;;;5047546;28;20515;-83
2022/11/01 05:04:48;;;;;;;13.10;7.07;;;;;;;;;;5060737;28;20045;-83
2022/11/01 05:07:15;;;;;;;9.77;5.80;;;;;;;;;;5034318;28;20049;-83
2022/11/01 05:09:41;;;;;;;9.43;5.82;;;;;;;;;;5031888;28;20516;-83
2022/11/01 05:12:08;;;;;;;11.52;5.85;;;;;;;;;;5006969;28;20050;-83
2022/11/01 05:14:34;;;;;;;9.55;5.63;;;;;;;;;;5035498;28;20068;-83
2022/11/01 05:17:00;;;;;;;9.15;5.05;;;;;;;;;;5017933;28;20124;-83
2022/11/01 05:19:26;;;;;;;8.65;4.90;;;;;;;;;;5033427;28;20115;-81
2022/11/01 05:21:52;;;;;;;6.18;3.92;;;;;;;;;;5035610;28;20138;-83
2022/11/01 05:24:18;;;;;;;8.73;3.60;;;;;;;;;;5033518;28;20081;-83
2022/11/01 05:26:44;;;;;;;7.07;3.58;;;;;;;;;;5017007;28;20500;-82
2022/11/01 05:29:10;;;;;;;6.80;3.00;;;;;;;;;;5015786;28;20045;-83
2022/11/01 05:31:37;;;;;;;4.35;2.92;;;;;;;;;;5033832;28;20485;-83
2022/11/01 05:34:03;;;;;;;8.48;3.40;;;;;;;;;;5035041;28;20064;-81
2022/11/01 05:36:29;;;;;;;7.72;3.25;;;;;;;;;;5026813;28;20408;-83
2022/11/01 05:38:56;;;;;;;6.00;2.55;;;;;;;;;;5023776;28;20087;-83
2022/11/01 05:41:22;;;;;;;5.40;2.50;;;;;;;;;;5014403;28;20052;-83
2022/11/01 05:43:48;;;;;;;5.28;2.30;;;;;;;;;;5015679;28;20042;-82
2022/11/01 05:46:14;;;;;;;3.72;2.20;;;;;;;;;;5015461;28;20115;-83
2022/11/01 05:48:41;;;;;;;4.97;2.30;;;;;;;;;;5062443;28;20056;-83
2022/11/01 05:51:07;;;;;;;4.80;2.10;;;;;;;;;;5053512;28;20052;-83
2022/11/01 05:53:33;;;;;;;5.82;2.08;;;;;;;;;;5018122;28;20099;-81
2022/11/01 05:56:00;;;;;;;4.97;2.20;;;;;;;;;;5033620;28;20045;-83
2022/11/01 05:58:26;;;;;;;5.00;2.10;;;;;;;;;;5034496;28;20496;-83
2022/11/01 06:00:59;;;;;;;4.53;2.08;;;;;;;;;;5032762;28;20041;-83
2022/11/01 06:03:25;;;;;;;7.15;2.08;;;;;;;;;;5034206;28;20560;-83
2022/11/01 06:05:51;;;;;;;4.47;1.95;;;;;;;;;;5030287;28;20069;-83
2022/11/01 06:08:17;;;;;;;6.85;2.17;;;;;;;;;;5015742;28;20496;-82
2022/11/01 06:10:43;;;;;;;5.22;1.90;;;;;;;;;;5024064;28;20058;-83
2022/11/01 06:13:10;;;;;;;4.40;1.80;;;;;;;;;;5030465;28;20049;-83
2022/11/01 06:15:36;;;;;;;4.45;1.92;;;;;;;;;;5033424;28;20057;-83
2022/11/01 06:18:02;;;;;;;5.45;2.35;;;;;;;;;;5034121;28;20052;-83
2022/11/01 06:20:28;;;;;;;5.18;1.90;;;;;;;;;;5033347;28;20045;-82
2022/11/01 06:22:55;;;;;;;4.10;2.10;;;;;;;;;;5033560;28;20042;-83
2022/11/01 06:25:21;;;;;;;3.85;2.17;;;;;;;;;;5032336;28;20048;-83
2022/11/01 06:27:47;;;;;;;6.00;2.13;;;;;;;;;;5019090;28;20473;-83
2022/11/01 06:30:14;;;;;;;4.47;1.85;;;;;;;;;;5020621;28;20054;-83
2022/11/01 06:32:40;;;;;;;10.13;2.95;;;;;;;;;;5046458;28;20137;-83
2022/11/01 06:35:06;;;;;;;6.28;2.53;;;;;;;;;;5022766;28;20377;-83
2022/11/01 06:37:32;;;;;;;7.03;2.42;;;;;;;;;;5015948;28;20488;-83
2022/11/01 06:39:58;;;;;;;8.48;2.10;;;;;;;;;;5031747;28;20082;-83
2022/11/01 06:42:24;;;;;;;6.78;2.22;;;;;;;;;;5032985;28;20084;-83
2022/11/01 06:44:50;;;;;;;8.95;2.30;;;;;;;;;;5027335;28;20045;-83
2022/11/01 06:47:16;;;;;;;14.60;2.58;;;;;;;;;;5013244;28;20389;-83
2022/11/01 06:49:42;;;;;;;7.90;1.95;;;;;;;;;;5013779;28;20485;-82
2022/11/01 06:52:08;;;;;;;8.57;2.28;;;;;;;;;;5025364;28;20128;-83
2022/11/01 06:54:34;;;;;;;11.45;2.70;;;;;;;;;;5052598;28;20041;-83
2022/11/01 06:57:00;;;;;;;8.50;2.22;;;;;;;;;;5039892;28;20099;-84
2022/11/01 06:59:26;;;;;;;9.82;2.42;;;;;;;;;;5050965;28;20041;-81
2022/11/01 07:01:53;;;;;;;8.52;2.75;;;;;;;;;;5034598;28;20041;-83
2022/11/01 07:04:20;;;;;;;8.25;2.28;;;;;;;;;;5032277;28;20558;-83
2022/11/01 07:06:46;;;;;;;8.13;2.55;;;;;;;;;;5024309;28;20052;-84
2022/11/01 07:09:12;;;;;;;8.30;2.20;;;;;;;;;;5023129;28;20050;-84
2022/11/01 07:11:38;;;;;;;9.05;2.28;;;;;;;;;;5058983;28;20061;-84
2022/11/01 07:14:05;;;;;;;7.30;2.53;;;;;;;;;;5015662;28;20068;-82
2022/11/01 07:16:31;;;;;;;7.57;2.60;;;;;;;;;;5022424;28;20049;-84
2022/11/01 07:18:58;;;;;;;9.80;2.60;;;;;;;;;;5019743;28;20068;-84
2022/11/01 07:21:24;;;;;;;8.25;2.83;;;;;;;;;;5026539;28;20053;-84
2022/11/01 07:23:52;;;;;;;13.18;2.45;;;;;;;;;;5033357;28;20042;-84
2022/11/01 07:26:18;;;;;;;8.00;2.92;;;;;;;;;;5032406;28;20502;-84
2022/11/01 07:28:44;;;;;;;7.05;2.03;;;;;;;;;;5029950;28;20432;-84
2022/11/01 07:31:10;;;;;;;9.98;2.40;;;;;;;;;;5034398;28;20539;-84
2022/11/01 07:33:36;;;;;;;11.18;2.72;;;;;;;;;;5044450;28;20045;-84
2022/11/01 07:36:02;;;;;;;8.40;2.47;;;;;;;;;;5036068;28;20079;-84
2022/11/01 07:38:28;;;;;;;11.40;2.70;;;;;;;;;;5034740;28;20406;-83
2022/11/01 07:40:54;;;;;;;14.77;3.40;;;;;;;;;;5047710;28;20408;-84
2022/11/01 07:43:20;;;;;;;8.02;2.42;;;;;;;;;;5025200;28;20050;-84
2022/11/01 07:45:47;;;;;;;9.60;2.75;;;;;;;;;;5028297;28;20405;-83
2022/11/01 07:48:14;;;;;;;9.38;2.70;;;;;;;;;;5031541;28;20149;-84
2022/11/01 07:50:41;;;;;;;12.50;2.70;;;;;;;;;;5025151;28;20095;-84
2022/11/01 07:53:08;;;;;;;10.27;2.90;;;;;;;;;;5032833;28;20382;-84
2022/11/01 07:55:35;;;;;;;10.07;3.38;;;;;;;;;;5027577;28;20076;-83
2022/11/01 07:58:01;;;;;;;11.30;3.45;;;;;;;;;;5026827;28;20144;-84
2022/11/01 08:00:27;;;;;;;16.00;3.17;;;;;;;;;;5032752;28;20049;-84
2022/11/01 08:03:03;;;;;;;9.68;3.00;;;;;;;;;;5035417;28;20455;-84
2022/11/01 08:05:29;;;;;;;11.80;3.03;;;;;;;;;;5030919;28;20489;-83
2022/11/01 08:07:55;;;;;;;13.75;3.28;;;;;;;;;;5036185;28;20076;-81
2022/11/01 08:10:21;;;;;;;13.55;4.00;;;;;;;;;;5042015;28;20049;-87
2022/11/01 08:12:47;;;;;;;12.32;3.45;;;;;;;;;;5035892;28;20045;-86
2022/11/01 08:15:13;;;;;;;11.20;3.40;;;;;;;;;;5036988;28;20037;-86
2022/11/01 08:17:39;;;;;;;10.50;4.18;;;;;;;;;;5036695;28;20054;-84
2022/11/01 08:20:06;;;;;;;13.55;3.60;;;;;;;;;;5036287;28;20400;-84
2022/11/01 08:22:32;;;;;;;14.32;3.50;;;;;;;;;;5037459;28;20045;-85
2022/11/01 08:24:59;;;;;;;12.88;3.15;;;;;;;;;;5029492;28;20120;-84
2022/11/01 08:27:25;;;;;;;19.80;3.72;;;;;;;;;;5036896;28;20121;-83
2022/11/01 08:29:51;;;;;;;11.45;3.78;;;;;;;;;;5036685;28;20045;-84
2022/11/01 08:32:21;;;;;;;14.60;3.65;;;;;;;;;;5036887;28;20045;-85
2022/11/01 08:34:47;;;;;;;18.58;3.75;;;;;;;;;;5018258;28;20119;-81
2022/11/01 08:37:13;;;;;;;14.65;4.20;;;;;;;;;;5036615;28;20046;-84
2022/11/01 08:39:39;;;;;;;13.38;3.65;;;;;;;;;;5035882;28;20046;-85
2022/11/01 08:42:06;;;;;;;13.88;3.60;;;;;;;;;;5036577;28;20050;-84
2022/11/01 08:44:33;;;;;;;14.82;4.28;;;;;;;;;;5035803;28;20052;-85
2022/11/01 08:47:00;;;;;;;13.38;3.75;;;;;;;;;;5034984;28;20390;-84
2022/11/01 08:49:27;;;;;;;16.52;3.65;;;;;;;;;;5036687;28;20095;-85
2022/11/01 08:51:53;;;;;;;11.90;3.53;;;;;;;;;;5036588;28;20045;-85
2022/11/01 08:54:19;;;;;;;22.40;3.40;;;;;;;;;;5036130;28;20076;-85
2022/11/01 08:56:45;;;;;;;13.82;3.60;;;;;;;;;;5036789;28;20477;-85
2022/11/01 08:59:11;;;;;;;13.60;3.72;;;;;;;;;;5037043;28;20116;-85
2022/11/01 09:01:37;;;;;;;13.98;3.80;;;;;;;;;;5036935;28;20121;-85
2022/11/01 09:04:04;;;;;;;16.58;3.75;;;;;;;;;;5036290;28;20404;-84
2022/11/01 09:06:30;;;;;;;20.85;3.78;;;;;;;;;;5036652;28;20049;-85
2022/11/01 09:08:56;;;;;;;15.70;3.80;;;;;;;;;;5036437;28;20101;-85
2022/11/01 09:11:24;;;;;;;14.73;3.95;;;;;;;;;;5036301;28;20382;-85
2022/11/01 09:13:51;;;;;;;15.43;3.70;;;;;;;;;;5036397;28;20050;-85
2022/11/01 09:16:17;;;;;;;12.20;3.13;;;;;;;;;;5035984;28;20045;-85
2022/11/01 09:18:44;;;;;;;17.20;3.65;;;;;;;;;;5035712;28;20049;-85
2022/11/01 09:21:10;;;;;;;19.08;3.90;;;;;;;;;;5036150;28;20171;-85
2022/11/01 09:23:36;;;;;;;16.33;3.42;;;;;;;;;;5036206;28;20049;-85
2022/11/01 09:26:06;;;;;;;16.33;3.72;;;;;;;;;;5036067;28;20083;-85
2022/11/01 09:28:32;;;;;;;14.32;3.78;;;;;;;;;;5021796;28;20048;-85
2022/11/01 09:31:02;;;;;;;13.68;3.60;;;;;;;;;;5033959;28;20407;-84
2022/11/01 09:33:29;;;;;;;16.40;4.57;;;;;;;;;;5035952;28;20112;-85
2022/11/01 09:35:55;;;;;;;14.93;3.95;;;;;;;;;;5014053;28;20409;-85
2022/11/01 09:38:21;;;;;;;15.50;3.63;;;;;;;;;;5031575;28;20045;-85
2022/11/01 09:40:49;;;;;;;17.48;4.15;;;;;;;;;;5035077;28;20041;-85
2022/11/01 09:43:18;;;;;;;12.57;3.60;;;;;;;;;;5032006;28;20049;-85
2022/11/01 09:45:44;;;;;;;12.27;3.13;;;;;;;;;;5023557;28;20048;-85
2022/11/01 09:48:12;;;;;;;12.57;3.70;;;;;;;;;;5032182;28;20111;-85
2022/11/01 09:50:39;;;;;;;16.00;3.78;;;;;;;;;;5015230;28;20050;-85
2022/11/01 09:53:09;;;;;;;14.18;4.15;;;;;;;;;;5013734;28;20456;-85
2022/11/01 09:55:38;;;;;;;14.55;4.03;;;;;;;;;;5014917;28;20508;-85
2022/11/01 09:58:08;;;;;;;16.23;3.35;;;;;;;;;;5033647;28;20069;-85
2022/11/01 10:00:39;;;;;;;17.25;3.85;;;;;;;;;;5034823;28;20037;-85
2022/11/01 10:03:19;;;;;;;11.75;3.78;;;;;;;;;;5034131;28;20515;-85
2022/11/01 10:06:04;;;;;;;15.15;3.88;;;;;;;;;;5021076;28;20167;-86
2022/11/01 10:08:37;;;;;;;11.20;3.60;;;;;;;;;;5028317;28;20084;-85
2022/11/01 10:11:22;;;;;;;17.55;4.20;;;;;;;;;;5034199;28;20053;-85
2022/11/01 10:14:01;;;;;;;15.95;3.53;;;;;;;;;;5034654;28;20088;-86
2022/11/01 10:16:37;;;;;;;15.35;3.75;;;;;;;;;;5021067;28;20034;-85
2022/11/01 10:19:13;;;;;;;15.25;3.58;;;;;;;;;;5022742;28;20456;-85
2022/11/01 10:22:00;;;;;;;11.80;3.40;;;;;;;;;;5034113;28;20041;-85
2022/11/01 10:24:38;;;;;;;13.23;3.00;;;;;;;;;;5033823;28;20041;-85
2022/11/01 10:27:25;;;;;;;12.48;3.38;;;;;;;;;;5034247;28;20080;-85
2022/11/01 10:29:51;;;;;;;13.80;3.55;;;;;;;;;;5034084;28;20045;-85
2022/11/01 10:32:26;;;;;;;15.77;3.55;;;;;;;;;;5032765;28;20459;-85
2022/11/01 10:34:53;;;;;;;15.73;2.90;;;;;;;;;;5039173;28;20087;-86
2022/11/01 10:37:37;;;;;;;14.77;3.70;;;;;;;;;;5044985;28;20068;-85
2022/11/01 10:40:09;;;;;;;12.10;3.40;;;;;;;;;;5041380;28;20041;-83
2022/11/01 10:42:35;;;;;;;17.38;4.07;;;;;;;;;;5037540;28;20041;-86
2022/11/01 10:45:05;;;;;;;14.77;3.65;;;;;;;;;;5035289;28;20038;-85
2022/11/01 10:47:31;;;;;;;12.35;3.70;;;;;;;;;;5034147;28;20045;-81
2022/11/01 10:50:02;;;;;;;9.93;3.88;;;;;;;;;;5021233;28;20046;-82
2022/11/01 10:52:31;;;;;;;10.15;3.25;;;;;;;;;;5029016;28;20132;-82
2022/11/01 10:54:57;;;;;;;11.93;3.22;;;;;;;;;;5033671;28;20053;-85
2022/11/01 10:57:29;;;;;;;10.93;2.67;;;;;;;;;;5033636;28;20037;-85
2022/11/01 10:59:56;;;;;;;11.88;3.03;;;;;;;;;;5033625;28;20041;-83
2022/11/01 11:02:28;;;;;;;17.10;3.08;;;;;;;;;;5033504;28;20485;-84
2022/11/01 11:04:55;;;;;;;12.98;3.10;;;;;;;;;;5033253;28;20053;-83
2022/11/01 11:07:22;;;;;;;11.82;2.83;;;;;;;;;;5033549;28;20407;-83
2022/11/01 11:09:49;;;;;;;13.32;3.10;;;;;;;;;;5031358;28;20045;-82
2022/11/01 11:12:20;;;;;;;14.80;3.58;;;;;;;;;;5031749;28;20115;-83
2022/11/01 11:14:48;;;;;;;12.15;3.30;;;;;;;;;;5033102;28;20072;-83
2022/11/01 11:17:19;;;;;;;11.18;3.20;;;;;;;;;;5022924;28;20041;-83
2022/11/01 11:19:47;;;;;;;13.95;3.45;;;;;;;;;;5016670;28;20042;-83
2022/11/01 11:22:13;;;;;;;10.73;3.20;;;;;;;;;;5013760;28;20453;-82
2022/11/01 11:24:43;;;;;;;16.88;3.67;;;;;;;;;;5013397;28;20058;-83
2022/11/01 11:27:12;;;;;;;14.13;3.33;;;;;;;;;;5013368;28;20494;-83
2022/11/01 11:29:47;;;;;;;13.35;3.08;;;;;;;;;;5013428;28;20048;-75
2022/11/01 11:32:17;;;;;;;14.53;3.47;;;;;;;;;;5022557;28;20124;-82
2022/11/01 11:34:43;;;;;;;21.67;4.03;;;;;;;;;;5033896;28;20041;-84
2022/11/01 11:37:17;;;;;;;9.30;3.00;;;;;;;;;;5015668;28;20140;-85
2022/11/01 11:39:58;;;;;;;14.15;4.00;;;;;;;;;;5032905;28;20067;-85
2022/11/01 11:42:25;;;;;;;15.80;3.97;;;;;;;;;;5017948;28;20045;-86
2022/11/01 11:44:55;;;;;;;11.00;3.88;;;;;;;;;;5021267;28;20046;-85
2022/11/01 11:47:23;;;;;;;52.55;14.05;;;;;;;;;;5033145;28;20041;-85
2022/11/01 11:49:52;;;;;;;15.63;4.97;;;;;;;;;;5032674;28;20504;-86
2022/11/01 11:52:38;;;;;;;11.18;3.85;;;;;;;;;;5028523;28;20049;-85
2022/11/01 11:55:05;;;;;;;14.93;3.53;;;;;;;;;;5013432;28;20078;-86
2022/11/01 11:57:32;;;;;;;9.13;2.78;;;;;;;;;;5018268;28;20037;-85
2022/11/01 12:00:04;;;;;;;10.63;3.50;;;;;;;;;;5030611;28;20116;-85
2022/11/01 12:02:33;;;;;;;11.43;3.45;;;;;;;;;;5013225;28;20077;-85
2022/11/01 12:05:02;;;;;;;10.32;3.25;;;;;;;;;;5026041;28;20037;-85
2022/11/01 12:07:28;;;;;;;12.75;3.20;;;;;;;;;;5032637;28;20049;-85
2022/11/01 12:09:55;;;;;;;20.48;3.90;;;;;;;;;;5030199;28;20045;-86
2022/11/01 12:12:42;;;;;;;15.35;3.00;;;;;;;;;;5029238;28;20057;-86
2022/11/01 12:15:26;;;;;;;11.88;3.40;;;;;;;;;;5030591;28;20434;-85
2022/11/01 12:17:53;;;;;;;15.50;3.78;;;;;;;;;;5036639;28;20057;-86
2022/11/01 12:20:20;;;;;;;13.95;3.85;;;;;;;;;;5036594;28;20216;-86
2022/11/01 12:22:48;;;;;;;15.07;3.80;;;;;;;;;;5036776;28;20120;-86
2022/11/01 12:25:20;;;;;;;11.05;4.07;;;;;;;;;;5035922;28;20057;-86
2022/11/01 12:27:53;;;;;;;14.48;3.58;;;;;;;;;;5032430;28;20400;-85
2022/11/01 12:30:21;;;;;;;12.10;3.50;;;;;;;;;;5025759;28;20550;-86
2022/11/01 12:32:50;;;;;;;11.82;3.35;;;;;;;;;;5026562;28;20053;-86
2022/11/01 12:35:36;;;;;;;14.73;3.33;;;;;;;;;;5028574;28;20080;-85
2022/11/01 12:38:02;;;;;;;;;;;;;;;;;;5025037;28;20051;-86
2022/11/01 12:40:33;;;;;;;10.07;3.03;;;;;;;;;;5031671;28;19921;-85
2022/11/01 12:43:02;;;;;;;12.60;3.17;;;;;;;;;;5024965;28;20056;-84
2022/11/01 12:45:28;;;;;;;12.35;3.13;;;;;;;;;;5027988;28;20434;-85
2022/11/01 12:47:57;;;;;;;14.43;3.55;;;;;;;;;;5016930;28;20133;-86
2022/11/01 12:50:25;;;;;;;11.77;3.03;;;;;;;;;;5029597;28;20051;-86
2022/11/01 12:52:54;;;;;;;12.77;3.10;;;;;;;;;;5034691;28;20084;-86
2022/11/01 12:55:30;;;;;;;11.27;3.60;;;;;;;;;;5034337;28;20038;-86
2022/11/01 12:57:56;;;;;;;12.23;3.50;;;;;;;;;;5017362;28;20096;-86
2022/11/01 13:00:23;;;;;;;12.77;3.78;;;;;;;;;;5025831;28;20054;-86
2022/11/01 13:03:08;;;;;;;10.32;3.20;;;;;;;;;;5034778;28;20045;-86
2022/11/01 13:05:34;;;;;;;9.63;3.10;;;;;;;;;;5034673;28;20049;-86
2022/11/01 13:08:00;;;;;;;8.27;2.90;;;;;;;;;;5035453;28;20058;-86
2022/11/01 13:10:30;;;;;;;10.57;3.10;;;;;;;;;;5035533;28;20049;-85
2022/11/01 13:13:15;;;;;;;10.55;2.78;;;;;;;;;;5035439;28;20065;-86
2022/11/01 13:15:41;;;;;;;12.88;3.10;;;;;;;;;;5015961;28;20125;-86
2022/11/01 13:18:14;;;;;;;10.82;3.75;;;;;;;;;;5015800;28;20084;-86
2022/11/01 13:20:40;;;;;;;12.57;2.92;;;;;;;;;;5015805;28;20488;-85
2022/11/01 13:23:13;;;;;;;11.75;3.25;;;;;;;;;;5032458;28;20034;-86
2022/11/01 13:25:47;;;;;;;9.80;2.85;;;;;;;;;;5015178;28;20371;-86
2022/11/01 13:28:34;;;;;;;13.95;3.85;;;;;;;;;;5015317;28;20512;-86
2022/11/01 13:31:05;;;;;;;12.15;2.95;;;;;;;;;;5000381;28;20054;-86
2022/11/01 13:33:43;;;;;;;11.90;3.53;;;;;;;;;;5039110;28;20033;-86
2022/11/01 13:36:26;;;;;;;9.15;2.97;;;;;;;;;;5035761;28;20099;-86
2022/11/01 13:39:01;;;;;;;10.45;3.13;;;;;;;;;;5035766;28;20056;-86
2022/11/01 13:41:48;;;;;;;12.30;3.53;;;;;;;;;;5039033;28;20055;-82
2022/11/01 13:44:17;;;;;;;15.30;3.33;;;;;;;;;;5037984;28;20053;-85
2022/11/01 13:46:50;;;;;;;11.48;2.88;;;;;;;;;;5033531;28;20060;-84
2022/11/01 13:49:27;;;;;;;12.05;2.92;;;;;;;;;;5035046;28;20041;-86
2022/11/01 13:52:02;;;;;;;13.68;3.17;;;;;;;;;;5034675;28;20481;-86
2022/11/01 13:54:38;;;;;;;8.90;2.77;;;;;;;;;;5035579;28;20128;-86
2022/11/01 13:57:15;;;;;;;11.13;2.92;;;;;;;;;;5034556;28;20488;-85
2022/11/01 13:59:44;;;;;;;13.88;2.63;;;;;;;;;;5025176;28;20041;-85
2022/11/01 14:02:36;;;;;;;5.50;2.38;;;;;;;;;;5016204;28;20440;-85
2022/11/01 14:05:09;;;;;;;7.72;2.70;;;;;;;;;;5034235;28;20481;-85
2022/11/01 14:07:44;;;;;;;12.63;2.55;;;;;;;;;;5038024;28;20054;-85
2022/11/01 14:10:17;;;;;;;15.98;2.85;;;;;;;;;;5031987;28;20096;-84
2022/11/01 14:12:44;;;;;;;11.65;2.40;;;;;;;;;;5029419;28;20050;-84
2022/11/01 14:15:13;;;;;;;6.95;2.30;;;;;;;;;;5017331;28;20050;-84
2022/11/01 14:17:52;;;;;;;11.18;2.75;;;;;;;;;;5015734;28;20552;-84
2022/11/01 14:20:27;;;;;;;6.55;2.22;;;;;;;;;;5014652;28;20045;-85
2022/11/01 14:22:54;;;;;;;9.37;2.50;;;;;;;;;;5014303;28;20042;-83
2022/11/01 14:25:23;;;;;;;8.95;2.80;;;;;;;;;;5017735;28;20520;-84
2022/11/01 14:27:50;;;;;;;8.30;2.22;;;;;;;;;;5034135;28;20048;-84
2022/11/01 14:30:16;;;;;;;7.38;2.60;;;;;;;;;;5034304;28;20045;-84
2022/11/01 14:32:43;;;;;;;7.20;2.20;;;;;;;;;;5034135;28;20103;-84
2022/11/01 14:35:12;;;;;;;7.88;2.47;;;;;;;;;;5033970;28;20132;-84
2022/11/01 14:37:46;;;;;;;9.85;2.63;;;;;;;;;;5033162;28;20033;-84
2022/11/01 14:40:44;;;;;;;9.93;2.60;;;;;;;;;;5033921;28;20045;-84
2022/11/01 14:43:14;;;;;;;9.85;2.10;;;;;;;;;;5032327;28;20166;-84
2022/11/01 14:45:43;;;;;;;7.90;2.67;;;;;;;;;;5033781;28;20050;-84
2022/11/01 14:48:32;;;;;;;4.95;1.95;;;;;;;;;;5033939;28;20052;-84
2022/11/01 14:51:17;;;;;;;8.02;2.15;;;;;;;;;;5011625;28;20058;-84